Time;durP1;ratioP1;P1;durP2;ratioP2;P2;SDS_P1;SDS_P2;PMS_P1;PMS_P2;Temp;Humidity;BMP_temperature;BMP_pressure;BME280_temperature;BME280_humidity;BME280_pressure;Samples;Min_cycle;Max_cycle;Signal;HPM_P1;HPM_P2
2023/10/20 00:00:44;;;;;;;;;;;;;;;11.29;100.00;95485.09;5102249;28;19929;-69
2023/10/20 00:03:11;;;;;;;;;;;;;;;11.28;100.00;95499.56;5101006;28;19924;-69
2023/10/20 00:05:38;;;;;;;;;;;;;;;11.31;100.00;95497.03;5103266;28;19959;-69
2023/10/20 00:08:05;;;;;;;;;;;;;;;11.35;100.00;95502.50;5094034;28;19928;-69
2023/10/20 00:10:35;;;;;;;;;;;;;;;11.37;100.00;95487.69;5102111;28;19924;-69
2023/10/20 00:13:01;;;;;;;;;;;;;;;11.38;100.00;95483.94;5100585;28;19931;-69
2023/10/20 00:15:28;;;;;;;;;;;;;;;11.39;100.00;95479.34;5102164;28;20448;-69
2023/10/20 00:17:54;;;;;;;;;;;;;;;11.42;100.00;95459.22;5104056;28;19953;-69
2023/10/20 00:20:21;;;;;;;;;;;;;;;11.43;100.00;95474.13;5103445;28;19931;-69
2023/10/20 00:22:49;;;;;;;;;;;;;;;11.39;100.00;95477.47;5100375;28;19931;-69
2023/10/20 00:25:15;;;;;;;;;;;;;;;11.39;100.00;95471.31;5100476;28;19929;-69
2023/10/20 00:27:42;;;;;;;;;;;;;;;11.41;100.00;95474.47;5091850;28;19963;-69
2023/10/20 00:30:09;;;;;;;;;;;;;;;11.44;100.00;95465.81;5100355;28;19932;-69
2023/10/20 00:32:35;;;;;;;;;;;;;;;11.42;100.00;95457.31;5102533;28;19924;-69
2023/10/20 00:35:03;;;;;;;;;;;;;;;11.37;100.00;95449.50;5103707;28;19967;-69
2023/10/20 00:37:30;;;;;;;;;;;;;;;11.24;100.00;95445.22;5089209;28;19925;-69
2023/10/20 00:39:57;;;;;;;;;;;;;;;11.27;100.00;95440.00;5103503;28;19920;-69
2023/10/20 00:42:24;;;;;;;;;;;;;;;11.30;100.00;95427.88;5102295;28;19988;-69
2023/10/20 00:44:50;;;;;;;;;;;;;;;11.33;100.00;95417.31;5099844;28;19924;-69
2023/10/20 00:47:17;;;;;;;;;;;;;;;11.35;100.00;95401.75;5098951;28;19924;-69
2023/10/20 00:49:45;;;;;;;;;;;;;;;11.36;100.00;95397.16;5091770;28;20114;-69
2023/10/20 00:52:12;;;;;;;;;;;;;;;11.39;100.00;95393.84;5099877;28;19924;-69
2023/10/20 00:54:38;;;;;;;;;;;;;;;11.38;100.00;95384.28;5102848;28;19954;-69
2023/10/20 00:57:06;;;;;;;;;;;;;;;11.35;100.00;95371.59;5103013;28;19928;-69
2023/10/20 00:59:32;;;;;;;;;;;;;;;11.38;100.00;95370.94;5100981;28;19965;-69
2023/10/20 01:01:59;;;;;;;;;;;;;;;11.38;100.00;95360.25;5098673;28;19925;-69
2023/10/20 01:04:24;;;;;;;;;;;;;;;11.36;100.00;95379.25;5100819;28;19925;-69
2023/10/20 01:06:51;;;;;;;;;;;;;;;11.38;100.00;95366.38;5092673;28;19932;-69
2023/10/20 01:09:25;;;;;;;;;;;;;;;11.35;100.00;95353.66;5100027;28;19920;-69
2023/10/20 01:11:51;;;;;;;;;;;;;;;11.27;100.00;95348.38;5103161;28;19924;-68
2023/10/20 01:14:19;;;;;;;;;;;;;;;11.23;100.00;95342.16;5102930;28;20002;-68
2023/10/20 01:16:46;;;;;;;;;;;;;;;11.24;100.00;95346.38;5099456;28;19925;-67
2023/10/20 01:19:12;;;;;;;;;;;;;;;11.26;100.00;95352.19;5100602;28;20438;-68
2023/10/20 01:21:38;;;;;;;;;;;;;;;11.27;100.00;95351.84;5102764;28;19931;-70
2023/10/20 01:24:07;;;;;;;;;;;;;;;11.29;100.00;95340.84;5103312;28;19928;-69
2023/10/20 01:26:33;;;;;;;;;;;;;;;11.26;100.00;95339.59;5101124;28;19983;-68
2023/10/20 01:29:00;;;;;;;;;;;;;;;11.27;100.00;95343.81;5099715;28;19955;-68
2023/10/20 01:31:26;;;;;;;;;;;;;;;11.26;100.00;95342.25;5100666;28;19956;-68
2023/10/20 01:33:53;;;;;;;;;;;;;;;11.32;100.00;95342.84;5103082;28;19955;-69
2023/10/20 01:36:19;;;;;;;;;;;;;;;11.32;100.00;95334.84;5091076;28;19947;-69
2023/10/20 01:38:46;;;;;;;;;;;;;;;11.34;100.00;95322.72;5099565;28;19992;-68
2023/10/20 01:41:13;;;;;;;;;;;;;;;11.31;100.00;95315.34;5099500;28;19925;-70
2023/10/20 01:43:40;;;;;;;;;;;;;;;11.31;100.00;95323.38;5102704;28;19924;-69
2023/10/20 01:46:06;;;;;;;;;;;;;;;11.32;100.00;95318.81;5102981;28;19967;-69
2023/10/20 01:48:32;;;;;;;;;;;;;;;11.32;100.00;95314.25;5100959;28;19959;-68
2023/10/20 01:50:59;;;;;;;;;;;;;;;11.31;100.00;95306.56;5099701;28;19974;-68
2023/10/20 01:53:26;;;;;;;;;;;;;;;11.33;100.00;95298.97;5100613;28;19925;-68
2023/10/20 01:55:53;;;;;;;;;;;;;;;11.34;100.00;95311.25;5102695;28;19958;-68
2023/10/20 01:58:21;;;;;;;;;;;;;;;11.34;100.00;95301.34;5101959;28;20028;-68
2023/10/20 02:00:49;;;;;;;;;;;;;;;11.36;100.00;95298.31;5098994;28;20563;-69
2023/10/20 02:03:15;;;;;;;;;;;;;;;11.33;100.00;95301.66;5098961;28;19992;-67
2023/10/20 02:05:41;;;;;;;;;;;;;;;11.31;100.00;95296.66;5100532;28;19924;-67
2023/10/20 02:08:08;;;;;;;;;;;;;;;11.35;100.00;95286.88;5091854;28;19963;-68
2023/10/20 02:10:34;;;;;;;;;;;;;;;11.35;100.00;95286.88;5099826;28;19928;-68
2023/10/20 02:13:02;;;;;;;;;;;;;;;11.37;100.00;95273.16;5099766;28;19951;-70
2023/10/20 02:15:30;;;;;;;;;;;;;;;11.37;100.00;95265.16;5104627;28;19950;-69
2023/10/20 02:17:57;;;;;;;;;;;;;;;11.36;100.00;95260.91;5106365;28;19978;-69
2023/10/20 02:20:25;;;;;;;;;;;;;;;11.30;100.00;95252.34;5105393;28;19979;-69
2023/10/20 02:22:52;;;;;;;;;;;;;;;11.30;100.00;95251.56;5102752;28;19943;-69
2023/10/20 02:25:19;;;;;;;;;;;;;;;11.31;100.00;95247.78;5103009;28;19964;-69
2023/10/20 02:27:45;;;;;;;;;;;;;;;11.31;100.00;95229.09;5104918;28;19928;-69
2023/10/20 02:30:13;;;;;;;;;;;;;;;11.31;100.00;95237.88;5105143;28;19924;-70
2023/10/20 02:32:41;;;;;;;;;;;;;;;11.33;100.00;95240.19;5102633;28;19924;-69
2023/10/20 02:35:08;;;;;;;;;;;;;;;11.34;100.00;95231.09;5102458;28;19921;-69
2023/10/20 02:37:34;;;;;;;;;;;;;;;11.32;100.00;95233.31;5093165;28;20166;-70
2023/10/20 02:40:04;;;;;;;;;;;;;;;11.31;100.00;95250.44;5105945;28;19950;-68
2023/10/20 02:42:30;;;;;;;;;;;;;;;11.24;100.00;95242.97;5103773;28;19924;-68
2023/10/20 02:44:57;;;;;;;;;;;;;;;11.21;100.00;95237.50;5102193;28;19955;-68
2023/10/20 02:47:23;;;;;;;;;;;;;;;11.18;100.00;95235.50;5102989;28;19988;-69
2023/10/20 02:49:55;;;;;;;;;;;;;;;11.17;100.00;95233.97;5105569;28;20029;-68
2023/10/20 02:52:21;;;;;;;;;;;;;;;11.21;100.00;95229.50;5105034;28;19924;-68
2023/10/20 02:54:48;;;;;;;;;;;;;;;11.26;100.00;95229.31;5102135;28;19920;-69
2023/10/20 02:57:14;;;;;;;;;;;;;;;11.30;100.00;95224.84;5102069;28;19939;-68
2023/10/20 02:59:40;;;;;;;;;;;;;;;11.32;100.00;95222.63;5105520;28;19928;-68
2023/10/20 03:02:07;;;;;;;;;;;;;;;11.33;100.00;95229.53;5105684;28;19924;-69
2023/10/20 03:04:33;;;;;;;;;;;;;;;11.31;100.00;95224.53;5103280;28;19924;-69
2023/10/20 03:07:01;;;;;;;;;;;;;;;11.33;100.00;95213.50;5090291;28;20004;-69
2023/10/20 03:09:27;;;;;;;;;;;;;;;11.31;100.00;95213.06;5103471;28;19932;-69
2023/10/20 03:11:54;;;;;;;;;;;;;;;11.33;100.00;95216.16;5105423;28;19943;-69
2023/10/20 03:14:21;;;;;;;;;;;;;;;11.28;100.00;95205.69;5104781;28;19924;-69
2023/10/20 03:16:47;;;;;;;;;;;;;;;11.19;100.00;95197.00;5101361;28;19935;-69
2023/10/20 03:19:14;;;;;;;;;;;;;;;11.08;100.00;95177.97;5101564;28;19947;-69
2023/10/20 03:21:41;;;;;;;;;;;;;;;11.06;100.00;95174.06;5104995;28;19924;-69
2023/10/20 03:24:09;;;;;;;;;;;;;;;11.06;100.00;95166.06;5104561;28;19928;-68
2023/10/20 03:26:35;;;;;;;;;;;;;;;11.10;100.00;95165.06;5100909;28;19963;-68
2023/10/20 03:29:04;;;;;;;;;;;;;;;11.16;100.00;95165.63;5101464;28;19924;-67
2023/10/20 03:31:31;;;;;;;;;;;;;;;11.20;100.00;95166.53;5103502;28;19928;-67
2023/10/20 03:33:57;;;;;;;;;;;;;;;11.23;100.00;95171.22;5105055;28;19928;-68
2023/10/20 03:36:24;;;;;;;;;;;;;;;11.26;100.00;95165.19;5092581;28;19951;-67
2023/10/20 03:38:50;;;;;;;;;;;;;;;11.24;100.00;95167.41;5101201;28;19982;-68
2023/10/20 03:41:18;;;;;;;;;;;;;;;11.16;100.00;95160.28;5101250;28;19928;-68
2023/10/20 03:43:45;;;;;;;;;;;;;;;11.15;100.00;95158.72;5093145;28;19947;-68
2023/10/20 03:46:13;;;;;;;;;;;;;;;11.15;100.00;95153.38;5101106;28;19980;-68
2023/10/20 03:48:40;;;;;;;;;;;;;;;11.15;100.00;95145.38;5104219;28;19925;-68
2023/10/20 03:51:10;;;;;;;;;;;;;;;11.16;100.00;95154.94;5104630;28;19924;-68
2023/10/20 03:53:46;;;;;;;;;;;;;;;11.16;100.00;95150.38;5101794;28;19991;-68
2023/10/20 03:56:12;;;;;;;;;;;;;;;11.13;100.00;95140.38;5101509;28;19926;-68
2023/10/20 03:58:42;;;;;;;;;;;;;;;11.08;100.00;95142.50;5104969;28;19924;-68
2023/10/20 04:01:09;;;;;;;;;;;;;;;11.06;100.00;95134.78;5104802;28;19924;-68
2023/10/20 04:03:35;;;;;;;;;;;;;;;11.02;100.00;95117.09;5102114;28;19924;-68
2023/10/20 04:06:06;;;;;;;;;;;;;;;10.95;100.00;95117.66;5097105;28;19925;-68
2023/10/20 04:08:34;;;;;;;;;;;;;;;10.93;100.00;95119.09;5099530;28;19966;-68
2023/10/20 04:11:00;;;;;;;;;;;;;;;10.93;100.00;95116.41;5099827;28;19924;-68
2023/10/20 04:13:28;;;;;;;;;;;;;;;10.93;100.00;95109.19;5101921;28;19969;-68
2023/10/20 04:15:56;;;;;;;;;;;;;;;10.90;100.00;95099.19;5104252;28;19924;-68
2023/10/20 04:18:23;;;;;;;;;;;;;;;10.85;100.00;95091.41;5103424;28;19924;-68
2023/10/20 04:20:50;;;;;;;;;;;;;;;10.81;100.00;95090.50;5100787;28;19932;-68
2023/10/20 04:23:16;;;;;;;;;;;;;;;10.82;100.00;95068.81;5101041;28;19924;-68
2023/10/20 04:25:52;;;;;;;;;;;;;;;10.77;100.00;95053.00;5093278;28;19920;-68
2023/10/20 04:28:20;;;;;;;;;;;;;;;10.78;100.00;95081.28;5101171;28;19931;-68
2023/10/20 04:41:55;;;;;;;;;;;;;;;11.06;100.00;95048.56;5092473;28;19952;-67
2023/10/20 04:53:12;;;;;;;;;;;;;;;11.18;100.00;95011.94;5092192;28;19920;-68
2023/10/20 04:58:42;;;;;;;;;;;;;;;11.23;100.00;95005.59;5101425;28;19924;-68
2023/10/20 05:01:16;;;;;;;;;;;;;;;11.24;100.00;94993.78;5100237;28;19931;-68
2023/10/20 05:03:46;;;;;;;;;;;;;;;11.20;100.00;94985.66;5092257;28;20018;-68
2023/10/20 05:06:22;;;;;;;;;;;;;;;11.18;100.00;94977.22;5095106;28;19932;-69
2023/10/20 05:08:49;;;;;;;;;;;;;;;11.13;100.00;94963.34;5092782;28;19947;-69
2023/10/20 05:11:15;;;;;;;;;;;;;;;11.07;100.00;94944.09;5100080;28;19921;-67
2023/10/20 05:13:42;;;;;;;;;;;;;;;11.04;100.00;94944.00;5103648;28;20007;-68
2023/10/20 05:16:09;;;;;;;;;;;;;;;10.99;100.00;94926.31;5103502;28;19927;-68
2023/10/20 05:18:36;;;;;;;;;;;;;;;10.98;100.00;94921.31;5101097;28;20056;-68
2023/10/20 05:21:04;;;;;;;;;;;;;;;10.98;100.00;94914.09;5099785;28;19924;-68
2023/10/20 05:23:33;;;;;;;;;;;;;;;11.01;100.00;94912.63;5101649;28;19947;-68
2023/10/20 05:25:59;;;;;;;;;;;;;;;11.01;100.00;94891.28;5102274;28;19939;-68
2023/10/20 05:28:26;;;;;;;;;;;;;;;10.94;100.00;94877.72;5102021;28;20019;-69
2023/10/20 05:30:53;;;;;;;;;;;;;;;10.86;100.00;94865.28;5099517;28;20000;-69
2023/10/20 05:33:19;;;;;;;;;;;;;;;10.77;100.00;94858.19;5099823;28;19925;-69
2023/10/20 05:35:46;;;;;;;;;;;;;;;10.76;100.00;94853.97;5100067;28;19987;-69
2023/10/20 05:38:12;;;;;;;;;;;;;;;10.76;100.00;94859.31;5094511;28;19947;-68
2023/10/20 05:40:40;;;;;;;;;;;;;;;10.79;100.00;94860.53;5099951;28;19925;-68
2023/10/20 05:43:06;;;;;;;;;;;;;;;10.77;100.00;94855.50;5099202;28;19925;-68
2023/10/20 05:45:40;;;;;;;;;;;;;;;10.76;100.00;94847.84;5100914;28;19924;-68
2023/10/20 05:48:07;;;;;;;;;;;;;;;10.75;100.00;94846.28;5101960;28;19924;-68
2023/10/20 05:50:36;;;;;;;;;;;;;;;10.81;100.00;94866.28;5100761;28;19928;-68
2023/10/20 05:53:03;;;;;;;;;;;;;;;10.85;100.00;94869.84;5099069;28;19920;-68
2023/10/20 05:55:29;;;;;;;;;;;;;;;10.91;100.00;94873.84;5100749;28;19931;-69
2023/10/20 05:57:58;;;;;;;;;;;;;;;10.96;100.00;94868.25;5102601;28;19946;-69
2023/10/20 06:00:24;;;;;;;;;;;;;;;11.02;100.00;94866.09;5101704;28;19950;-69
2023/10/20 06:02:51;;;;;;;;;;;;;;;11.06;100.00;94861.66;5099237;28;19921;-68
2023/10/20 06:05:18;;;;;;;;;;;;;;;11.05;100.00;94866.22;5099243;28;20630;-68
2023/10/20 06:07:45;;;;;;;;;;;;;;;11.04;100.00;94853.22;5085084;28;19931;-68
2023/10/20 06:10:13;;;;;;;;;;;;;;;11.05;100.00;94838.75;5102264;28;20109;-67
2023/10/20 06:12:40;;;;;;;;;;;;;;;10.96;100.00;94835.44;5099530;28;19932;-69
2023/10/20 06:15:08;;;;;;;;;;;;;;;10.93;100.00;94823.53;5099212;28;20377;-69
2023/10/20 06:17:35;;;;;;;;;;;;;;;10.91;100.00;94830.34;5101458;28;19999;-69
2023/10/20 06:20:05;;;;;;;;;;;;;;;10.90;100.00;94826.88;5102706;28;19931;-69
2023/10/20 06:22:31;;;;;;;;;;;;;;;10.88;100.00;94821.13;5100906;28;19924;-69
2023/10/20 06:24:59;;;;;;;;;;;;;;;10.85;100.00;94819.13;5099171;28;19927;-69
2023/10/20 06:27:25;;;;;;;;;;;;;;;10.86;100.00;94825.25;5100171;28;19969;-69
2023/10/20 06:29:55;;;;;;;;;;;;;;;10.87;100.00;94830.25;5102504;28;19924;-68
2023/10/20 06:32:25;;;;;;;;;;;;;;;10.89;100.00;94841.38;5101402;28;20002;-68
2023/10/20 06:34:53;;;;;;;;;;;;;;;10.93;100.00;94842.22;5097917;28;19925;-68
2023/10/20 06:37:28;;;;;;;;;;;;;;;10.97;100.00;94843.13;5087557;28;19939;-68
2023/10/20 06:39:55;;;;;;;;;;;;;;;11.02;100.00;94839.41;5102581;28;19924;-68
2023/10/20 06:42:21;;;;;;;;;;;;;;;11.02;100.00;94831.41;5102002;28;19924;-68
2023/10/20 06:44:48;;;;;;;;;;;;;;;11.00;100.00;94825.63;5098803;28;19978;-68
2023/10/20 06:47:14;;;;;;;;;;;;;;;11.01;100.00;94824.53;5098885;28;19924;-68
2023/10/20 06:49:42;;;;;;;;;;;;;;;10.97;100.00;94815.63;5101638;28;19920;-68
2023/10/20 06:52:09;;;;;;;;;;;;;;;10.97;100.00;94812.97;5101919;28;20448;-68
2023/10/20 06:54:35;;;;;;;;;;;;;;;11.01;100.00;94795.16;5098551;28;19935;-68
2023/10/20 06:57:01;;;;;;;;;;;;;;;10.99;100.00;94798.16;5098689;28;19921;-68
2023/10/20 06:59:28;;;;;;;;;;;;;;;11.03;100.00;94796.38;5100491;28;19928;-68
2023/10/20 07:01:59;;;;;;;;;;;;;;;11.06;100.00;94787.66;5105947;28;19935;-68
2023/10/20 07:04:26;;;;;;;;;;;;;;;11.06;100.00;94766.31;5104697;28;19924;-68
2023/10/20 07:06:54;;;;;;;;;;;;;;;11.04;100.00;94751.75;5090918;28;19983;-69
2023/10/20 07:09:20;;;;;;;;;;;;;;;11.01;100.00;94753.22;5102860;28;20020;-68
2023/10/20 07:11:48;;;;;;;;;;;;;;;11.04;100.00;94741.06;5106164;28;19957;-69
2023/10/20 07:14:14;;;;;;;;;;;;;;;11.03;100.00;94734.97;5106191;28;19932;-68
2023/10/20 07:16:41;;;;;;;;;;;;;;;11.04;100.00;94730.41;5102780;28;19924;-69
2023/10/20 07:19:08;;;;;;;;;;;;;;;11.08;100.00;94731.28;5102462;28;19984;-68
2023/10/20 07:21:35;;;;;;;;;;;;;;;11.08;100.00;94720.59;5103776;28;19924;-69
2023/10/20 07:24:03;;;;;;;;;;;;;;;11.11;100.00;94711.91;5106241;28;19966;-68
2023/10/20 07:26:29;;;;;;;;;;;;;;;11.14;100.00;94705.88;5104324;28;19928;-68
2023/10/20 07:28:56;;;;;;;;;;;;;;;11.11;100.00;94699.28;5102285;28;20594;-69
2023/10/20 07:31:22;;;;;;;;;;;;;;;11.17;100.00;94697.91;5101769;28;19948;-69
2023/10/20 07:33:49;;;;;;;;;;;;;;;11.18;100.00;94672.78;5105746;28;19924;-68
2023/10/20 07:36:15;;;;;;;;;;;;;;;11.19;100.00;94660.19;5093512;28;19929;-68
2023/10/20 07:38:42;;;;;;;;;;;;;;;11.19;100.00;94654.88;5101755;28;19925;-68
2023/10/20 07:41:11;;;;;;;;;;;;;;;11.23;100.00;94653.81;5101868;28;19924;-68
2023/10/20 07:43:38;;;;;;;;;;;;;;;11.29;100.00;94638.31;5104254;28;19967;-68
2023/10/20 07:46:05;;;;;;;;;;;;;;;11.30;100.00;94627.28;5105082;28;19956;-67
2023/10/20 07:48:32;;;;;;;;;;;;;;;11.32;100.00;94617.03;5102181;28;19924;-69
2023/10/20 07:50:59;;;;;;;;;;;;;;;11.33;100.00;94620.47;5100644;28;19924;-68
2023/10/20 07:53:25;;;;;;;;;;;;;;;11.40;100.00;94620.63;5102320;28;19988;-68
2023/10/20 07:55:52;;;;;;;;;;;;;;;11.46;100.00;94608.56;5104885;28;19988;-68
2023/10/20 07:58:20;;;;;;;;;;;;;;;11.49;100.00;94613.19;5104657;28;19952;-68
2023/10/20 08:00:47;;;;;;;;;;;;;;;11.56;100.00;94610.69;5101302;28;19924;-67
2023/10/20 08:03:13;;;;;;;;;;;;;;;11.57;100.00;94616.81;5100953;28;19924;-68
2023/10/20 08:05:40;;;;;;;;;;;;;;;11.66;100.00;94602.16;5102820;28;19924;-69
2023/10/20 08:08:07;;;;;;;;;;;;;;;11.71;100.00;94588.53;5094240;28;19924;-68
2023/10/20 08:10:33;;;;;;;;;;;;;;;11.74;100.00;94579.81;5101721;28;19940;-68
2023/10/20 08:13:01;;;;;;;;;;;;;;;11.74;100.00;94584.38;5100746;28;19929;-68
2023/10/20 08:15:29;;;;;;;;;;;;;;;11.81;100.00;94595.22;5101998;28;19931;-68
2023/10/20 08:17:55;;;;;;;;;;;;;;;11.81;100.00;94616.59;5104270;28;19959;-68
2023/10/20 08:20:22;;;;;;;;;;;;;;;11.90;100.00;94617.16;5103538;28;19931;-68
2023/10/20 08:22:48;;;;;;;;;;;;;;;11.98;100.00;94618.06;5100748;28;19932;-69
2023/10/20 08:25:14;;;;;;;;;;;;;;;12.02;100.00;94608.25;5100764;28;19924;-69
2023/10/20 08:27:41;;;;;;;;;;;;;;;12.03;100.00;94594.53;5104266;28;19924;-69
2023/10/20 08:30:08;;;;;;;;;;;;;;;12.07;100.00;94599.94;5104021;28;19988;-69
2023/10/20 08:32:36;;;;;;;;;;;;;;;12.10;100.00;94601.91;5101555;28;19924;-69
2023/10/20 08:35:03;;;;;;;;;;;;;;;12.06;100.00;94593.81;5100438;28;19963;-68
2023/10/20 08:37:29;;;;;;;;;;;;;;;12.12;100.00;94581.72;5090191;28;19924;-68
2023/10/20 08:39:56;;;;;;;;;;;;;;;12.14;100.00;94581.34;5104101;28;19924;-69
2023/10/20 08:42:22;;;;;;;;;;;;;;;12.18;100.00;94579.53;5103350;28;19946;-69
2023/10/20 08:44:49;;;;;;;;;;;;;;;12.20;100.00;94582.59;5100460;28;19924;-68
2023/10/20 08:47:17;;;;;;;;;;;;;;;12.22;100.00;94583.84;5100375;28;19956;-68
2023/10/20 08:49:45;;;;;;;;;;;;;;;12.25;100.00;94598.41;5092270;28;19924;-68
2023/10/20 08:52:12;;;;;;;;;;;;;;;12.30;100.00;94622.16;5100371;28;19950;-68
2023/10/20 08:54:39;;;;;;;;;;;;;;;12.33;100.00;94616.13;5103306;28;19935;-68
2023/10/20 08:57:06;;;;;;;;;;;;;;;12.33;100.00;94608.88;5103891;28;20513;-69
2023/10/20 08:59:32;;;;;;;;;;;;;;;12.33;100.00;94600.06;5101773;28;19988;-68
2023/10/20 09:01:59;;;;;;;;;;;;;;;12.33;100.00;94610.75;5100342;28;19959;-68
2023/10/20 09:04:27;;;;;;;;;;;;;;;12.38;100.00;94594.41;5101101;28;19986;-69
2023/10/20 09:06:54;;;;;;;;;;;;;;;12.38;100.00;94605.91;5092920;28;20332;-69
2023/10/20 09:09:21;;;;;;;;;;;;;;;12.39;100.00;94612.03;5100607;28;19936;-69
2023/10/20 09:11:48;;;;;;;;;;;;;;;12.47;100.00;94612.94;5104223;28;19959;-68
2023/10/20 09:14:15;;;;;;;;;;;;;;;12.51;100.00;94609.19;5103473;28;19924;-70
2023/10/20 09:16:42;;;;;;;;;;;;;;;12.51;100.00;94598.50;5100154;28;19928;-69
2023/10/20 09:19:10;;;;;;;;;;;;;;;12.34;100.00;94613.09;5099866;28;19984;-70
2023/10/20 09:21:39;;;;;;;;;;;;;;;12.33;100.00;94616.91;5102365;28;19925;-71
2023/10/20 09:24:08;;;;;;;;;;;;;;;12.43;100.00;94619.00;5102746;28;19924;-69
2023/10/20 09:26:35;;;;;;;;;;;;;;;12.54;100.00;94610.38;5100833;28;19923;-68
2023/10/20 09:29:05;;;;;;;;;;;;;;;12.61;100.00;94613.19;5099874;28;20656;-69
2023/10/20 09:31:31;;;;;;;;;;;;;;;12.67;100.00;94596.50;5100755;28;19932;-68
2023/10/20 09:33:58;;;;;;;;;;;;;;;12.73;100.00;94597.75;5102853;28;19928;-68
2023/10/20 09:36:24;;;;;;;;;;;;;;;12.74;100.00;94601.97;5090139;28;19925;-69
2023/10/20 09:38:52;;;;;;;;;;;;;;;12.78;100.00;94602.78;5099138;28;19929;-69
2023/10/20 09:41:21;;;;;;;;;;;;;;;12.84;100.00;94605.97;5099211;28;19925;-68
2023/10/20 09:43:49;;;;;;;;;;;;;;;12.88;100.00;94594.16;5102616;28;19920;-69
2023/10/20 09:46:22;;;;;;;;;;;;;;;12.90;100.00;94591.91;5102505;28;19924;-69
2023/10/20 09:48:51;;;;;;;;;;;;;;;12.78;100.00;94562.63;5091424;28;19925;-70
2023/10/20 09:51:19;;;;;;;;;;;;;;;12.87;100.00;94579.22;5099013;28;19928;-69
2023/10/20 09:53:46;;;;;;;;;;;;;;;12.90;100.00;94550.97;5091126;28;19924;-70
2023/10/20 09:56:13;;;;;;;;;;;;;;;12.92;100.00;94551.38;5099342;28;19962;-69
2023/10/20 09:58:42;;;;;;;;;;;;;;;12.96;100.00;94552.22;5102834;28;20298;-69
2023/10/20 10:01:13;;;;;;;;;;;;;;;12.95;100.00;94542.63;5102761;28;19987;-69
2023/10/20 10:03:40;;;;;;;;;;;;;;;12.96;100.00;94547.66;5099474;28;19925;-69
2023/10/20 10:06:11;;;;;;;;;;;;;;;12.99;100.00;94533.53;5094535;28;19948;-69
2023/10/20 10:08:38;;;;;;;;;;;;;;;12.97;100.00;94535.78;5097802;28;20038;-69
2023/10/20 10:11:17;;;;;;;;;;;;;;;12.96;100.00;94541.50;5098661;28;20027;-69
2023/10/20 10:13:45;;;;;;;;;;;;;;;13.04;100.00;94532.44;5090578;28;19924;-69
2023/10/20 10:16:13;;;;;;;;;;;;;;;12.96;100.00;94544.19;5099030;28;19928;-68
2023/10/20 10:18:44;;;;;;;;;;;;;;;13.03;100.00;94527.47;5101809;28;19950;-69
2023/10/20 10:21:21;;;;;;;;;;;;;;;13.00;100.00;94532.38;5102338;28;19931;-68
2023/10/20 10:24:03;;;;;;;;;;;;;;;13.13;100.00;94524.94;5091046;28;19932;-69
2023/10/20 10:26:29;;;;;;;;;;;;;;;12.94;100.00;94541.09;5100404;28;19924;-69
2023/10/20 10:28:57;;;;;;;;;;;;;;;13.08;100.00;94527.16;5102279;28;19931;-69
2023/10/20 10:31:33;;;;;;;;;;;;;;;13.16;100.00;94536.84;5101015;28;19924;-69
2023/10/20 10:34:00;;;;;;;;;;;;;;;13.07;100.00;94538.97;5099623;28;19993;-69
2023/10/20 10:36:27;;;;;;;;;;;;;;;13.10;100.00;94549.00;5097546;28;19931;-69
2023/10/20 10:38:53;;;;;;;;;;;;;;;13.17;100.00;94533.81;5103493;28;19935;-69
2023/10/20 10:41:23;;;;;;;;;;;;;;;13.16;100.00;94547.56;5102843;28;19925;-68
2023/10/20 10:43:53;;;;;;;;;;;;;;;13.05;100.00;94550.06;5106144;28;19924;-69
2023/10/20 10:46:20;;;;;;;;;;;;;;;13.16;100.00;94560.97;5104639;28;19924;-68
2023/10/20 10:48:47;;;;;;;;;;;;;;;13.28;100.00;94552.72;5101362;28;19947;-69
2023/10/20 10:51:13;;;;;;;;;;;;;;;13.14;100.00;94560.56;5102284;28;19950;-68
2023/10/20 10:53:40;;;;;;;;;;;;;;;13.31;100.00;94554.66;5105277;28;19960;-68
2023/10/20 10:56:07;;;;;;;;;;;;;;;13.47;100.00;94563.34;5105867;28;19931;-69
2023/10/20 10:58:34;;;;;;;;;;;;;;;13.04;100.00;94540.47;5103656;28;19924;-69
2023/10/20 11:01:00;;;;;;;;;;;;;;;13.01;100.00;94541.19;5102239;28;20019;-69
2023/10/20 11:03:28;;;;;;;;;;;;;;;13.08;100.00;94540.53;5103280;28;19963;-70
2023/10/20 11:05:55;;;;;;;;;;;;;;;13.30;100.00;94558.50;5100625;28;19956;-69
2023/10/20 11:08:21;;;;;;;;;;;;;;;13.46;100.00;94545.72;5099045;28;19920;-68
2023/10/20 11:10:49;;;;;;;;;;;;;;;13.46;100.00;94557.19;5102239;28;19913;-70
2023/10/20 11:13:16;;;;;;;;;;;;;;;13.53;100.00;94567.25;5102118;28;19925;-69
2023/10/20 11:15:43;;;;;;;;;;;;;;;13.62;100.00;94575.78;5105588;28;19920;-69
2023/10/20 11:18:10;;;;;;;;;;;;;;;13.66;100.00;94584.66;5105342;28;19924;-69
2023/10/20 11:20:38;;;;;;;;;;;;;;;13.67;100.00;94577.41;5102897;28;19935;-69
2023/10/20 11:23:07;;;;;;;;;;;;;;;13.75;100.00;94579.03;5101743;28;19967;-69
2023/10/20 11:25:34;;;;;;;;;;;;;;;13.82;100.00;94574.53;5103744;28;19928;-68
2023/10/20 11:28:02;;;;;;;;;;;;;;;13.89;100.00;94581.91;5105030;28;19938;-69
2023/10/20 11:30:31;;;;;;;;;;;;;;;13.96;100.00;94582.75;5103591;28;19934;-70
2023/10/20 11:32:57;;;;;;;;;;;;;;;13.98;100.00;94583.19;5101163;28;20009;-69
2023/10/20 11:35:24;;;;;;;;;;;;;;;14.05;100.00;94587.84;5102102;28;20462;-69
2023/10/20 11:37:52;;;;;;;;;;;;;;;14.14;100.00;94596.41;5092967;28;19924;-69
2023/10/20 11:40:18;;;;;;;;;;;;;;;14.19;100.00;94593.38;5105055;28;19971;-69
2023/10/20 11:42:45;;;;;;;;;;;;;;;14.23;100.00;94601.47;5093216;28;19984;-68
2023/10/20 11:45:12;;;;;;;;;;;;;;;14.29;100.00;94586.59;5101049;28;19963;-69
2023/10/20 11:47:38;;;;;;;;;;;;;;;14.19;100.00;94598.75;5103979;28;19951;-69
2023/10/20 11:50:05;;;;;;;;;;;;;;;14.38;100.00;94603.22;5104871;28;19930;-69
2023/10/20 11:52:32;;;;;;;;;;;;;;;14.38;100.00;94632.75;5103104;28;19924;-69
2023/10/20 11:55:00;;;;;;;;;;;;;;;14.16;100.00;94668.47;5101327;28;19959;-69
2023/10/20 11:57:26;;;;;;;;;;;;;;;14.03;100.00;94708.94;5102376;28;20776;-69
2023/10/20 11:59:53;;;;;;;;;;;;;;;13.58;100.00;94727.78;5104556;28;19979;-69
2023/10/20 12:02:19;;;;;;;;;;;;;;;13.85;100.00;94720.53;5104288;28;20042;-68
2023/10/20 12:04:46;;;;;;;;;;;;;;;14.00;100.00;94703.50;5099939;28;19925;-68
2023/10/20 12:07:12;;;;;;;;;;;;;;;14.16;100.00;94692.63;5089114;28;19956;-69
2023/10/20 12:09:38;;;;;;;;;;;;;;;13.82;100.00;94703.25;5103636;28;19983;-69
2023/10/20 12:12:07;;;;;;;;;;;;;;;14.24;100.00;94672.78;5103340;28;19928;-68
2023/10/20 12:14:34;;;;;;;;;;;;;;;14.43;100.00;94675.34;5102006;28;19962;-69
2023/10/20 12:17:00;;;;;;;;;;;;;;;14.55;100.00;94680.47;5099474;28;19932;-68
2023/10/20 12:19:26;;;;;;;;;;;;;;;14.59;100.00;94668.66;5101780;28;20760;-69
2023/10/20 12:21:53;;;;;;;;;;;;;;;14.59;100.00;94659.81;5103205;28;19952;-69
2023/10/20 12:24:19;;;;;;;;;;;;;;;14.47;100.00;94649.34;5104158;28;19987;-70
2023/10/20 12:26:46;;;;;;;;;;;;;;;14.58;100.00;94661.72;5100641;28;19947;-69
2023/10/20 12:29:13;;;;;;;;;;;;;;;14.64;100.00;94656.78;5100477;28;19971;-69
2023/10/20 12:31:40;;;;;;;;;;;;;;;14.79;100.00;94671.16;5102949;28;20437;-69
2023/10/20 12:34:06;;;;;;;;;;;;;;;14.73;100.00;94678.00;5103428;28;19935;-69
2023/10/20 12:36:35;;;;;;;;;;;;;;;15.08;100.00;94660.34;5089632;28;19964;-69
2023/10/20 12:39:06;;;;;;;;;;;;;;;14.96;100.00;94649.84;5100149;28;20007;-69
2023/10/20 12:41:33;;;;;;;;;;;;;;;15.16;100.00;94658.50;5102415;28;19960;-69
2023/10/20 12:43:59;;;;;;;;;;;;;;;15.29;100.00;94664.38;5103874;28;19931;-69
2023/10/20 12:46:27;;;;;;;;;;;;;;;15.32;100.00;94671.69;5102629;28;19936;-69
2023/10/20 12:48:53;;;;;;;;;;;;;;;15.41;100.00;94697.09;5100465;28;20000;-69
2023/10/20 12:51:19;;;;;;;;;;;;;;;15.45;100.00;94686.38;5100326;28;19924;-69
2023/10/20 12:53:46;;;;;;;;;;;;;;;15.47;100.00;94719.06;5104093;28;19924;-69
2023/10/20 12:56:12;;;;;;;;;;;;;;;15.49;100.00;94714.09;5103699;28;19946;-69
2023/10/20 12:58:39;;;;;;;;;;;;;;;15.50;100.00;94712.97;5100969;28;19994;-69